Time,TemperatureF,DewpointF,PressureIn,WindDirection,WindDirectionDegrees,WindSpeedMPH,WindSpeedGustMPH,Humidity,HourlyPrecipIn,Conditions,Clouds,dailyrainin,SoftwareType,DateUTC
2013-03-03 17:06:00,34.9,29.6,29.38,WNW,300,0.0,0.0,81,0.00,,---,0.00,VWS V13.01,2013-03-03 22:06:00,
2013-03-03 17:11:00,25.5,2.9,29.44,WSW,244,4.0,4.0,37,0.00,,---,0.00,VWS V13.01,2013-03-03 22:11:00,
2013-03-03 17:16:00,25.5,2.9,29.44,West,278,0.0,2.7,37,0.00,,---,0.00,VWS V13.01,2013-03-03 22:16:00,
2013-03-03 17:21:00,25.3,2.7,29.44,West,278,0.0,0.0,37,0.00,,---,0.00,VWS V13.01,2013-03-03 22:21:00,
2013-03-03 17:26:00,25.3,3.3,29.44,WNW,296,5.4,5.4,38,0.00,,---,0.00,VWS V13.01,2013-03-03 22:26:00,
2013-03-03 17:31:00,25.0,2.4,29.44,West,262,0.0,0.0,37,0.00,,---,0.00,VWS V13.01,2013-03-03 22:31:00,
2013-03-03 17:36:00,24.8,2.8,29.44,WNW,302,0.0,0.0,38,0.00,,---,0.00,VWS V13.01,2013-03-03 22:36:00,
2013-03-03 17:41:00,24.8,2.8,29.44,NW,318,4.9,4.9,38,0.00,,---,0.00,VWS V13.01,2013-03-03 22:41:00,
2013-03-03 17:46:00,24.6,3.2,29.44,West,270,0.0,0.0,39,0.00,,---,0.00,VWS V13.01,2013-03-03 22:46:00,
2013-03-03 17:51:00,24.6,3.2,29.44,NW,304,2.7,2.7,39,0.00,,---,0.00,VWS V13.01,2013-03-03 22:51:00,
2013-03-03 17:56:00,24.4,3.0,29.44,West,267,0.0,0.0,39,0.00,,---,0.00,VWS V13.01,2013-03-03 22:56:00,
2013-03-03 18:01:00,24.4,3.0,29.44,West,264,0.0,0.0,39,0.00,,---,0.00,VWS V13.01,2013-03-03 23:01:00,
2013-03-03 18:06:00,24.3,3.4,29.44,WSW,249,0.0,0.0,40,0.00,,---,0.00,VWS V13.01,2013-03-03 23:06:00,
2013-03-03 18:11:00,24.1,3.3,29.44,WSW,249,0.0,0.0,40,0.00,,---,0.00,VWS V13.01,2013-03-03 23:11:00,
2013-03-03 18:16:00,24.1,3.8,29.44,West,272,0.0,0.0,41,0.00,,---,0.00,VWS V13.01,2013-03-03 23:16:00,
2013-03-03 18:21:00,23.9,4.2,29.44,West,259,0.0,0.0,42,0.00,,---,0.00,VWS V13.01,2013-03-03 23:21:00,
2013-03-03 18:26:00,23.9,4.2,29.44,West,278,2.7,2.7,42,0.00,,---,0.00,VWS V13.01,2013-03-03 23:26:00,
2013-03-03 18:31:00,23.7,4.0,29.44,WNW,285,2.2,2.2,42,0.00,,---,0.00,VWS V13.01,2013-03-03 23:31:00,
2013-03-03 18:36:00,23.5,3.8,29.44,WSW,255,0.0,0.0,42,0.00,,---,0.00,VWS V13.01,2013-03-03 23:36:00,
2013-03-03 18:41:00,23.5,3.8,29.44,West,277,0.0,0.0,42,0.00,,---,0.00,VWS V13.01,2013-03-03 23:41:00,
2013-03-03 18:46:00,23.5,3.8,29.44,West,277,0.0,0.0,42,0.00,,---,0.00,VWS V13.01,2013-03-03 23:46:00,
2013-03-03 18:51:00,23.5,3.8,29.44,West,275,0.0,0.0,42,0.00,,---,0.00,VWS V13.01,2013-03-03 23:51:00,
2013-03-03 18:56:00,23.5,3.8,29.44,WSW,255,0.0,0.0,42,0.00,,---,0.00,VWS V13.01,2013-03-03 23:56:00,
2013-03-03 19:01:00,23.5,3.8,29.44,West,259,0.0,0.0,42,0.00,,---,0.00,VWS V13.01,2013-03-04 00:01:00,
2013-03-03 19:06:00,23.5,3.8,29.44,West,262,0.0,0.0,42,0.00,,---,0.00,VWS V13.01,2013-03-04 00:06:00,
2013-03-03 19:11:00,23.5,3.8,29.44,WSW,246,0.0,0.0,42,0.00,,---,0.00,VWS V13.01,2013-03-04 00:11:00,
2013-03-03 19:16:00,23.5,3.8,29.44,WSW,253,0.0,0.0,42,0.00,,---,0.00,VWS V13.01,2013-03-04 00:16:00,
2013-03-03 19:21:00,23.5,3.8,29.44,WSW,247,0.0,0.0,42,0.00,,---,0.00,VWS V13.01,2013-03-04 00:21:00,
2013-03-03 19:26:00,23.5,3.8,29.44,WSW,240,0.0,0.0,42,0.00,,---,0.00,VWS V13.01,2013-03-04 00:26:00,
2013-03-03 19:31:00,23.5,4.3,29.44,SW,235,0.0,0.0,43,0.00,,---,0.00,VWS V13.01,2013-03-04 00:31:00,
2013-03-03 19:36:00,23.5,4.3,29.44,WSW,247,0.0,0.0,43,0.00,,---,0.00,VWS V13.01,2013-03-04 00:36:00,
2013-03-03 19:41:00,23.5,4.3,29.44,WSW,237,0.0,0.0,43,0.00,,---,0.00,VWS V13.01,2013-03-04 00:41:00,
2013-03-03 19:46:00,23.7,5.0,29.44,SSW,213,4.9,4.9,44,0.00,,---,0.00,VWS V13.01,2013-03-04 00:46:00,
2013-03-03 19:51:00,23.7,5.0,29.44,SW,235,0.0,0.0,44,0.00,,---,0.00,VWS V13.01,2013-03-04 00:51:00,
2013-03-03 19:56:00,23.7,5.5,29.44,SW,231,4.0,4.0,45,0.00,,---,0.00,VWS V13.01,2013-03-04 00:56:00,
2013-03-03 20:01:00,23.9,5.7,29.44,SW,226,3.6,3.6,45,0.00,,---,0.00,VWS V13.01,2013-03-04 01:01:00,
2013-03-03 20:06:00,24.1,6.3,29.44,SSW,213,4.5,4.5,46,0.00,,---,0.00,VWS V13.01,2013-03-04 01:06:00,
2013-03-03 20:11:00,24.3,6.5,29.44,SW,216,4.0,4.0,46,0.00,,---,0.00,VWS V13.01,2013-03-04 01:11:00,
2013-03-03 20:16:00,24.3,6.5,29.44,SW,216,4.0,4.0,46,0.00,,---,0.00,VWS V13.01,2013-03-04 01:16:00,
2013-03-03 20:21:00,24.4,7.1,29.44,WSW,252,5.4,5.4,47,0.00,,---,0.00,VWS V13.01,2013-03-04 01:21:00,
2013-03-03 20:26:00,24.4,7.1,29.44,WSW,252,5.4,5.4,47,0.00,,---,0.00,VWS V13.01,2013-03-04 01:26:00,
2013-03-03 20:31:00,24.6,7.3,29.44,SW,228,3.6,3.6,47,0.00,,---,0.00,VWS V13.01,2013-03-04 01:31:00,
2013-03-03 20:36:00,24.8,7.0,29.44,SW,232,5.8,5.8,46,0.00,,---,0.00,VWS V13.01,2013-03-04 01:36:00,
2013-03-03 20:41:00,24.8,7.0,29.44,SW,221,3.1,3.1,46,0.00,,---,0.00,VWS V13.01,2013-03-04 01:41:00,
2013-03-03 20:46:00,24.8,6.5,29.44,SW,214,5.4,5.4,45,0.00,,---,0.00,VWS V13.01,2013-03-04 01:46:00,
2013-03-03 20:51:00,24.8,6.5,29.44,SW,226,3.1,3.1,45,0.00,,---,0.00,VWS V13.01,2013-03-04 01:51:00,
2013-03-03 20:56:00,25.0,6.7,29.44,SW,215,3.1,3.1,45,0.00,,---,0.00,VWS V13.01,2013-03-04 01:56:00,
2013-03-03 21:01:00,25.0,6.7,29.44,SW,222,4.0,4.9,45,0.00,,---,0.00,VWS V13.01,2013-03-04 02:01:00,
2013-03-03 21:06:00,25.0,6.7,29.44,SW,222,4.0,4.0,45,0.00,,---,0.00,VWS V13.01,2013-03-04 02:06:00,
2013-03-03 21:11:00,25.0,6.7,29.44,SW,232,4.0,4.0,45,0.00,,---,0.00,VWS V13.01,2013-03-04 02:11:00,
2013-03-03 21:16:00,25.2,6.3,29.44,WSW,257,3.1,3.1,44,0.00,,---,0.00,VWS V13.01,2013-03-04 02:16:00,
2013-03-03 21:21:00,25.2,6.3,29.44,West,267,2.7,2.7,44,0.00,,---,0.00,VWS V13.01,2013-03-04 02:21:00,
2013-03-03 21:26:00,25.2,6.3,29.44,SW,227,0.0,0.0,44,0.00,,---,0.00,VWS V13.01,2013-03-04 02:26:00,
2013-03-03 21:31:00,25.2,6.3,29.44,WSW,246,0.0,0.0,44,0.00,,---,0.00,VWS V13.01,2013-03-04 02:31:00,
2013-03-03 21:36:00,25.2,6.3,29.44,WSW,238,2.2,2.2,44,0.00,,---,0.00,VWS V13.01,2013-03-04 02:36:00,
2013-03-03 21:41:00,25.2,6.3,29.44,SW,224,0.0,0.0,44,0.00,,---,0.00,VWS V13.01,2013-03-04 02:41:00,
2013-03-03 21:46:00,25.2,6.3,29.44,SW,231,3.6,3.6,44,0.00,,---,0.00,VWS V13.01,2013-03-04 02:46:00,
2013-03-03 21:51:00,25.2,6.3,29.44,SW,233,0.0,0.0,44,0.00,,---,0.00,VWS V13.01,2013-03-04 02:51:00,
2013-03-03 21:56:00,25.0,6.2,29.44,SW,232,4.0,4.0,44,0.00,,---,0.00,VWS V13.01,2013-03-04 02:56:00,
2013-03-03 22:01:00,25.0,6.2,29.44,SW,232,4.0,4.0,44,0.00,,---,0.00,VWS V13.01,2013-03-04 03:01:00,
2013-03-03 22:06:00,25.2,6.3,29.44,SW,223,2.7,2.7,44,0.00,,---,0.00,VWS V13.01,2013-03-04 03:06:00,
2013-03-03 22:11:00,25.2,6.3,29.44,WSW,256,2.7,2.7,44,0.00,,---,0.00,VWS V13.01,2013-03-04 03:11:00,
2013-03-03 22:16:00,25.2,6.3,29.44,WSW,256,2.7,2.7,44,0.00,,---,0.00,VWS V13.01,2013-03-04 03:16:00,
2013-03-03 22:21:00,25.2,6.8,29.44,West,281,5.8,5.8,45,0.00,,---,0.00,VWS V13.01,2013-03-04 03:21:00,
2013-03-03 22:26:00,25.2,6.8,29.44,West,281,5.8,5.8,45,0.00,,---,0.00,VWS V13.01,2013-03-04 03:26:00,
2013-03-03 22:31:00,25.3,7.0,29.44,WNW,291,0.0,0.0,45,0.00,,---,0.00,VWS V13.01,2013-03-04 03:31:00,
2013-03-03 22:36:00,25.3,7.0,29.44,West,275,0.0,0.0,45,0.00,,---,0.00,VWS V13.01,2013-03-04 03:36:00,
2013-03-03 22:41:00,25.3,7.0,29.44,WSW,251,0.0,0.0,45,0.00,,---,0.00,VWS V13.01,2013-03-04 03:41:00,
2013-03-03 22:46:00,25.3,7.0,29.44,WSW,250,0.0,0.0,45,0.00,,---,0.00,VWS V13.01,2013-03-04 03:46:00,
2013-03-03 22:51:00,25.3,7.0,29.44,West,280,0.0,0.0,45,0.00,,---,0.00,VWS V13.01,2013-03-04 03:51:00,
2013-03-03 22:56:00,25.3,7.0,29.44,WSW,251,0.0,0.0,45,0.00,,---,0.00,VWS V13.01,2013-03-04 03:56:00,
2013-03-03 23:01:00,25.3,7.0,29.44,WSW,257,0.0,0.0,45,0.00,,---,0.00,VWS V13.01,2013-03-04 04:01:00,
2013-03-03 23:05:00,25.3,7.0,29.44,WSW,257,0.0,0.0,45,0.00,,---,0.00,VWS V13.01,2013-03-04 04:05:00,